SAOU/LUQ METAR and TAF weather

Enter ICAO airport designator
Station Type Date Time Source
SAOU METAR 2019/12/12 00:25 UTC NOAA

SAOU 120025Z 09013KT 9999 FEW045CB 28/12 Q1008 RELT OB TO N


Station Type Date Time Source
SAOU Decoded METAR 2019/12/12 00:25 UTC NOAA

San Luis Aerodrome, Argentina (SAOU) 33-16S 066-21W 713M
Dec 11, 2019 - 07:25 PM EST / 2019.12.12 0025 UTC
Wind: from the E (090 degrees) at 15 MPH (13 KT):0
Visibility: greater than 7 mile(s):0
Sky conditions: mostly clear
Weather: Cumulonimbus clouds observed
Temperature: 82 F (28 C)
Dew Point: 53 F (12 C)
Relative Humidity: 37%
Pressure (altimeter): 29.77 in. Hg (1008 hPa)
ob: SAOU 120025Z 09013KT 9999 FEW045CB 28/12 Q1008 RELT OB TO N
cycle: 0

Station Type Date Time Source
SAOU TAF 2019/11/14 19:21 UTC NOAA

TAF TAF
AMD SAOU 141900Z 1419/1518 07010KT 7000 TSRA SCT030 FEW040CB SCT080 TX32/1419Z TN21/1509Z
BECMG 1421/1423 11010KT 9999 VCTS SCT040 FEW050CB PROB40
TEMPO 1502/1506 14010KT 6000 TSRA BKN020 FEW030CB
BECMG 1507/1509 07005KT 9999 NSW SCT030

Example: see airport list